Time;durP1;ratioP1;P1;durP2;ratioP2;P2;SDS_P1;SDS_P2;PMS_P1;PMS_P2;Temp;Humidity;BMP_temperature;BMP_pressure;BME280_temperature;BME280_humidity;BME280_pressure;Samples;Min_cycle;Max_cycle;Signal;HPM_P1;HPM_P2
2023/04/04 00:00:53;;;;;;;5.40;3.50;;;;;;;;;;5021305;28;20519;-79
2023/04/04 00:03:19;;;;;;;5.10;3.22;;;;;;;;;;5037703;28;20424;-79
2023/04/04 00:05:45;;;;;;;5.85;3.58;;;;;;;;;;5037922;28;20431;-79
2023/04/04 00:08:11;;;;;;;5.45;3.40;;;;;;;;;;5037423;28;20435;-77
2023/04/04 00:10:37;;;;;;;6.68;3.60;;;;;;;;;;5017495;28;20417;-77
2023/04/04 00:13:04;;;;;;;5.50;3.42;;;;;;;;;;5021680;28;20416;-81
2023/04/04 00:15:30;;;;;;;4.70;3.20;;;;;;;;;;5038351;28;20477;-81
2023/04/04 00:17:57;;;;;;;5.43;3.60;;;;;;;;;;5016629;28;20475;-81
2023/04/04 00:20:23;;;;;;;5.63;3.40;;;;;;;;;;5040524;28;20444;-81
2023/04/04 00:22:49;;;;;;;5.28;3.58;;;;;;;;;;5019910;28;20512;-81
2023/04/04 00:25:15;;;;;;;6.93;3.70;;;;;;;;;;5023028;28;20419;-81
2023/04/04 00:27:41;;;;;;;5.90;3.60;;;;;;;;;;5039047;28;20443;-81
2023/04/04 00:30:08;;;;;;;5.93;3.67;;;;;;;;;;5028427;28;20424;-78
2023/04/04 00:32:34;;;;;;;6.60;3.70;;;;;;;;;;5036596;28;20525;-78
2023/04/04 00:35:00;;;;;;;5.78;4.00;;;;;;;;;;5016983;28;20421;-78
2023/04/04 00:37:26;;;;;;;6.18;4.00;;;;;;;;;;5020307;28;20422;-78
2023/04/04 00:39:52;;;;;;;5.28;3.60;;;;;;;;;;5016725;28;20414;-78
2023/04/04 00:42:18;;;;;;;6.35;3.78;;;;;;;;;;5016747;28;20421;-78
2023/04/04 00:44:45;;;;;;;5.90;3.58;;;;;;;;;;5043525;28;20435;-78
2023/04/04 00:47:11;;;;;;;6.43;4.22;;;;;;;;;;5029762;28;20421;-77
2023/04/04 00:49:37;;;;;;;6.78;4.03;;;;;;;;;;5019094;28;20432;-77
2023/04/04 00:52:05;;;;;;;5.75;4.00;;;;;;;;;;5036685;28;20434;-77
2023/04/04 00:54:31;;;;;;;7.47;4.30;;;;;;;;;;5015734;28;20476;-78
2023/04/04 00:56:58;;;;;;;6.97;3.90;;;;;;;;;;5031879;28;20441;-78
2023/04/04 00:59:26;;;;;;;5.65;3.72;;;;;;;;;;5020625;28;20459;-78
2023/04/04 01:01:52;;;;;;;6.25;3.97;;;;;;;;;;5035898;28;20434;-77
2023/04/04 01:04:18;;;;;;;6.07;3.50;;;;;;;;;;5054394;28;20369;-77
2023/04/04 01:06:45;;;;;;;7.70;4.28;;;;;;;;;;5036602;28;20436;-77
2023/04/04 01:09:12;;;;;;;5.93;3.90;;;;;;;;;;5021020;28;20212;-77
2023/04/04 01:11:38;;;;;;;7.22;4.50;;;;;;;;;;5035978;28;20416;-77
2023/04/04 01:14:04;;;;;;;7.70;4.43;;;;;;;;;;5036082;28;20423;-78
2023/04/04 01:16:30;;;;;;;6.60;4.50;;;;;;;;;;5020006;28;20408;-79
2023/04/04 01:18:56;;;;;;;6.28;4.35;;;;;;;;;;5019584;28;20420;-78
2023/04/04 01:21:23;;;;;;;6.03;4.55;;;;;;;;;;5019653;28;20411;-78
2023/04/04 01:23:56;;;;;;;5.47;4.25;;;;;;;;;;5019628;28;20423;-78
2023/04/04 01:26:22;;;;;;;7.10;4.65;;;;;;;;;;5035722;28;20456;-78
2023/04/04 01:28:49;;;;;;;6.65;4.68;;;;;;;;;;5032168;28;20441;-79
2023/04/04 01:31:20;;;;;;;7.17;4.40;;;;;;;;;;5011273;28;20180;-78
2023/04/04 01:33:51;;;;;;;7.87;4.70;;;;;;;;;;5012305;28;1163737;-78
2023/04/04 01:36:37;;;;;;;6.37;4.50;;;;;;;;;;5037068;28;20434;-80
2023/04/04 01:39:30;;;;;;;6.55;5.00;;;;;;;;;;5053573;28;20436;-79
2023/04/04 01:41:57;;;;;;;6.28;4.70;;;;;;;;;;5006999;28;20426;-80
2023/04/04 01:44:24;;;;;;;6.75;4.85;;;;;;;;;;5034635;28;20435;-79
2023/04/04 01:46:56;;;;;;;6.35;4.50;;;;;;;;;;5016995;28;20434;-80
2023/04/04 01:49:22;;;;;;;7.10;4.40;;;;;;;;;;5025159;28;20299;-80
2023/04/04 01:51:49;;;;;;;7.85;4.80;;;;;;;;;;5016764;28;20467;-80
2023/04/04 01:54:17;;;;;;;7.17;4.20;;;;;;;;;;5035755;28;20180;-81
2023/04/04 01:56:43;;;;;;;6.35;4.65;;;;;;;;;;5020606;28;20407;-81
2023/04/04 01:59:10;;;;;;;6.63;4.47;;;;;;;;;;5020394;28;20240;-81
2023/04/04 02:01:37;;;;;;;7.57;4.60;;;;;;;;;;5018743;28;20467;-80
2023/04/04 02:04:03;;;;;;;6.20;4.50;;;;;;;;;;5035469;28;20518;-80
2023/04/04 02:06:29;;;;;;;7.43;4.68;;;;;;;;;;5022957;28;20433;-81
2023/04/04 02:08:55;;;;;;;6.13;4.17;;;;;;;;;;5010081;28;20220;-80
2023/04/04 02:11:22;;;;;;;8.03;4.23;;;;;;;;;;5054821;28;20195;-80
2023/04/04 02:13:48;;;;;;;7.60;4.53;;;;;;;;;;5036255;28;20451;-80
2023/04/04 02:16:14;;;;;;;6.13;4.20;;;;;;;;;;5037704;28;20240;-80
2023/04/04 02:18:40;;;;;;;7.33;4.70;;;;;;;;;;5020074;28;20451;-80
2023/04/04 02:21:07;;;;;;;7.87;4.60;;;;;;;;;;5037525;28;20488;-80
2023/04/04 02:23:33;;;;;;;9.18;4.88;;;;;;;;;;5055554;28;20504;-81
2023/04/04 02:25:59;;;;;;;6.60;4.37;;;;;;;;;;5017031;28;20189;-76
2023/04/04 02:28:25;;;;;;;6.73;4.30;;;;;;;;;;5029245;28;20286;-76
2023/04/04 02:30:51;;;;;;;8.23;4.45;;;;;;;;;;5034202;28;20423;-76
2023/04/04 02:33:17;;;;;;;7.97;4.70;;;;;;;;;;5019003;28;20436;-76
2023/04/04 02:35:43;;;;;;;6.45;4.25;;;;;;;;;;5033905;28;20430;-77
2023/04/04 02:38:09;;;;;;;6.95;4.63;;;;;;;;;;5051910;28;20422;-76
2023/04/04 02:40:38;;;;;;;7.70;4.80;;;;;;;;;;5015981;28;20445;-76
2023/04/04 02:43:04;;;;;;;8.50;4.47;;;;;;;;;;5019778;28;20511;-78
2023/04/04 02:45:30;;;;;;;6.93;4.85;;;;;;;;;;5052189;28;20481;-78
2023/04/04 02:47:56;;;;;;;5.80;4.63;;;;;;;;;;5035325;28;20427;-78
2023/04/04 02:50:22;;;;;;;6.33;4.03;;;;;;;;;;5017640;28;20185;-79
2023/04/04 02:52:49;;;;;;;6.53;4.60;;;;;;;;;;5034734;28;20477;-78
2023/04/04 02:55:15;;;;;;;5.97;4.20;;;;;;;;;;5034268;28;20428;-79
2023/04/04 02:57:41;;;;;;;6.45;4.40;;;;;;;;;;5030978;28;20499;-78
2023/04/04 03:00:08;;;;;;;7.07;4.40;;;;;;;;;;5018623;28;20195;-77
2023/04/04 03:02:34;;;;;;;7.47;4.20;;;;;;;;;;5035216;28;20184;-77
2023/04/04 03:05:00;;;;;;;6.30;4.00;;;;;;;;;;5018885;28;20211;-77
2023/04/04 03:07:26;;;;;;;7.17;3.87;;;;;;;;;;5016348;28;20274;-77
2023/04/04 03:09:52;;;;;;;6.10;4.10;;;;;;;;;;5019133;28;20274;-77
2023/04/04 03:12:21;;;;;;;7.30;4.68;;;;;;;;;;5017576;28;20450;-77
2023/04/04 03:14:47;;;;;;;6.37;4.00;;;;;;;;;;5018455;28;20514;-77
2023/04/04 03:17:14;;;;;;;6.15;4.40;;;;;;;;;;5019157;28;20495;-76
2023/04/04 03:19:40;;;;;;;5.45;4.78;;;;;;;;;;5034955;28;20467;-77
2023/04/04 03:22:06;;;;;;;8.05;4.60;;;;;;;;;;5018245;28;20454;-77
2023/04/04 03:24:32;;;;;;;6.65;4.80;;;;;;;;;;5017476;28;20427;-77
2023/04/04 03:27:00;;;;;;;7.18;4.72;;;;;;;;;;5017110;28;20424;-77
2023/04/04 03:29:26;;;;;;;5.78;4.60;;;;;;;;;;5051356;28;20431;-76
2023/04/04 03:31:52;;;;;;;6.32;4.55;;;;;;;;;;5014642;28;20418;-76
2023/04/04 03:34:19;;;;;;;5.80;4.70;;;;;;;;;;5016779;28;20481;-76
2023/04/04 03:36:45;;;;;;;6.60;4.63;;;;;;;;;;5034049;28;20432;-76
2023/04/04 03:39:12;;;;;;;5.70;4.55;;;;;;;;;;5034928;28;20469;-77
2023/04/04 03:41:38;;;;;;;7.17;4.50;;;;;;;;;;5051741;28;20498;-76
2023/04/04 03:44:04;;;;;;;7.25;4.68;;;;;;;;;;5034026;28;20510;-77
2023/04/04 03:46:30;;;;;;;6.60;4.57;;;;;;;;;;5018448;28;20424;-76
2023/04/04 03:48:56;;;;;;;7.73;4.20;;;;;;;;;;5029141;28;20212;-78
2023/04/04 03:51:23;;;;;;;5.28;4.15;;;;;;;;;;5025973;28;20427;-78
2023/04/04 03:53:49;;;;;;;6.90;4.50;;;;;;;;;;5018028;28;20432;-78
2023/04/04 03:56:16;;;;;;;6.68;4.53;;;;;;;;;;5016872;28;20454;-78
2023/04/04 03:58:42;;;;;;;6.63;4.30;;;;;;;;;;5034259;28;20432;-78
2023/04/04 04:01:08;;;;;;;7.25;4.75;;;;;;;;;;5033536;28;20515;-78
2023/04/04 04:03:34;;;;;;;6.88;4.50;;;;;;;;;;5034482;28;20420;-78
2023/04/04 04:06:00;;;;;;;6.78;4.60;;;;;;;;;;5018533;28;20424;-80
2023/04/04 04:08:26;;;;;;;6.67;4.37;;;;;;;;;;5021758;28;20242;-80
2023/04/04 04:10:53;;;;;;;5.90;3.90;;;;;;;;;;5021367;28;20188;-81
2023/04/04 04:13:19;;;;;;;8.80;4.20;;;;;;;;;;5038647;28;20172;-80
2023/04/04 04:15:45;;;;;;;7.57;4.17;;;;;;;;;;5020495;28;20192;-81
2023/04/04 04:18:11;;;;;;;4.87;3.90;;;;;;;;;;5022225;28;20191;-80
2023/04/04 04:20:37;;;;;;;5.50;3.83;;;;;;;;;;5038083;28;20184;-80
2023/04/04 04:23:03;;;;;;;6.13;4.00;;;;;;;;;;5023011;28;20187;-78
2023/04/04 04:25:29;;;;;;;6.93;4.55;;;;;;;;;;5018316;28;20425;-79
2023/04/04 04:27:56;;;;;;;6.80;4.90;;;;;;;;;;5020180;28;20478;-79
2023/04/04 04:30:22;;;;;;;7.88;4.63;;;;;;;;;;5032719;28;20431;-79
2023/04/04 04:32:51;;;;;;;6.90;4.80;;;;;;;;;;5022518;28;20460;-81
2023/04/04 04:35:17;;;;;;;6.63;4.60;;;;;;;;;;5030697;28;20497;-76
2023/04/04 04:37:43;;;;;;;8.23;4.37;;;;;;;;;;5021834;28;20185;-76
2023/04/04 04:40:09;;;;;;;6.17;4.30;;;;;;;;;;5015856;28;20176;-76
2023/04/04 04:42:35;;;;;;;6.85;4.82;;;;;;;;;;5034734;28;20416;-77
2023/04/04 04:47:31;;;;;;;7.60;4.67;;;;;;;;;;5013763;28;20284;-80
2023/04/04 04:49:57;;;;;;;7.43;4.37;;;;;;;;;;5014521;28;20316;-80
2023/04/04 04:52:23;;;;;;;7.60;4.30;;;;;;;;;;5013984;28;20196;-80
2023/04/04 04:54:50;;;;;;;8.43;4.57;;;;;;;;;;4998526;28;20467;-80
2023/04/04 04:57:17;;;;;;;7.07;4.72;;;;;;;;;;4982107;28;20435;-80
2023/04/04 04:59:43;;;;;;;7.72;4.72;;;;;;;;;;4980797;28;20418;-80
2023/04/04 05:02:09;;;;;;;5.80;4.90;;;;;;;;;;4997270;28;20438;-80
2023/04/04 05:04:35;;;;;;;8.10;4.90;;;;;;;;;;4997273;28;20419;-80
2023/04/04 05:07:01;;;;;;;6.47;4.80;;;;;;;;;;4997865;28;20465;-80
2023/04/04 05:09:27;;;;;;;6.95;5.07;;;;;;;;;;5010159;28;20453;-80
2023/04/04 05:11:53;;;;;;;7.73;5.10;;;;;;;;;;4995688;28;20423;-80
2023/04/04 05:14:19;;;;;;;8.35;5.10;;;;;;;;;;4996048;28;20417;-80
2023/04/04 05:16:45;;;;;;;7.18;5.18;;;;;;;;;;4996318;28;20510;-80
2023/04/04 05:19:11;;;;;;;9.00;5.32;;;;;;;;;;4982143;28;20566;-80
2023/04/04 05:21:37;;;;;;;7.32;5.43;;;;;;;;;;4981564;28;20518;-80
2023/04/04 05:24:03;;;;;;;8.40;5.90;;;;;;;;;;4981027;28;20404;-86
2023/04/04 05:26:30;;;;;;;9.18;6.00;;;;;;;;;;4989064;28;20421;-85
2023/04/04 05:28:58;;;;;;;8.13;5.20;;;;;;;;;;4985700;28;20528;-81
2023/04/04 05:31:24;;;;;;;7.82;5.20;;;;;;;;;;5006814;28;20481;-79
2023/04/04 05:33:50;;;;;;;7.20;5.03;;;;;;;;;;4998913;28;20426;-79
2023/04/04 05:36:16;;;;;;;7.03;4.70;;;;;;;;;;4998439;28;20424;-80
2023/04/04 05:38:42;;;;;;;6.80;4.72;;;;;;;;;;4988721;28;20490;-80
2023/04/04 05:41:08;;;;;;;7.88;4.85;;;;;;;;;;4993537;28;20439;-80
2023/04/04 05:43:34;;;;;;;7.05;4.70;;;;;;;;;;4997233;28;20457;-80
2023/04/04 05:46:00;;;;;;;7.13;5.20;;;;;;;;;;4988592;28;20437;-86
2023/04/04 05:48:26;;;;;;;7.50;4.53;;;;;;;;;;4986832;28;20210;-86
2023/04/04 05:50:52;;;;;;;8.18;4.90;;;;;;;;;;4987238;28;20464;-87
2023/04/04 05:53:18;;;;;;;8.23;4.95;;;;;;;;;;4995521;28;20460;-86
2023/04/04 05:55:44;;;;;;;7.47;4.88;;;;;;;;;;4997226;28;20415;-87
2023/04/04 05:58:10;;;;;;;7.55;4.75;;;;;;;;;;4980541;28;20553;-86
2023/04/04 06:00:37;;;;;;;7.73;4.80;;;;;;;;;;4994691;28;20276;-87
2023/04/04 06:03:03;;;;;;;8.32;5.35;;;;;;;;;;5001811;28;20464;-80
2023/04/04 06:05:30;;;;;;;9.13;5.57;;;;;;;;;;4991527;28;20178;-81
2023/04/04 06:07:55;;;;;;;8.20;5.60;;;;;;;;;;4980330;28;20423;-81
2023/04/04 06:10:22;;;;;;;8.15;5.75;;;;;;;;;;4980740;28;20395;-80
2023/04/04 06:12:48;;;;;;;9.52;5.68;;;;;;;;;;4993929;28;20462;-80
2023/04/04 06:15:14;;;;;;;8.00;5.65;;;;;;;;;;4988814;28;20435;-80
2023/04/04 06:17:40;;;;;;;8.50;5.53;;;;;;;;;;4985721;28;20501;-80
2023/04/04 06:20:07;;;;;;;7.30;5.43;;;;;;;;;;4987989;28;20399;-82
2023/04/04 06:22:33;;;;;;;7.78;5.70;;;;;;;;;;4987661;28;20422;-81
2023/04/04 06:25:00;;;;;;;7.63;5.00;;;;;;;;;;4995590;28;20423;-81
2023/04/04 06:27:26;;;;;;;7.60;4.60;;;;;;;;;;4996031;28;20446;-81
2023/04/04 06:29:52;;;;;;;8.00;4.60;;;;;;;;;;4978703;28;20433;-82
2023/04/04 06:32:19;;;;;;;6.15;4.55;;;;;;;;;;5013782;28;20435;-82
2023/04/04 06:34:45;;;;;;;6.55;4.63;;;;;;;;;;4989549;28;20419;-82
2023/04/04 06:37:11;;;;;;;7.22;4.50;;;;;;;;;;4991405;28;20434;-87
2023/04/04 06:39:37;;;;;;;5.80;4.37;;;;;;;;;;4981480;28;20188;-87
2023/04/04 06:42:03;;;;;;;6.90;4.40;;;;;;;;;;4987597;28;20421;-87
2023/04/04 06:44:29;;;;;;;7.23;4.30;;;;;;;;;;5016645;28;20450;-82
2023/04/04 06:46:55;;;;;;;6.77;4.03;;;;;;;;;;4979891;28;20234;-82
2023/04/04 06:49:21;;;;;;;5.93;4.20;;;;;;;;;;5004415;28;20236;-82
2023/04/04 06:51:50;;;;;;;6.57;4.07;;;;;;;;;;4997133;28;20187;-87
2023/04/04 06:54:16;;;;;;;7.10;4.50;;;;;;;;;;4982426;28;20433;-87
2023/04/04 06:56:42;;;;;;;8.67;4.60;;;;;;;;;;4995559;28;20190;-87
2023/04/04 06:59:10;;;;;;;7.43;4.53;;;;;;;;;;4981394;28;20212;-86
2023/04/04 07:01:36;;;;;;;8.10;4.50;;;;;;;;;;4996104;28;20213;-87
2023/04/04 07:04:02;;;;;;;8.33;4.83;;;;;;;;;;5016669;28;20186;-88
2023/04/04 07:06:28;;;;;;;8.07;4.47;;;;;;;;;;4998693;28;20279;-88
2023/04/04 07:08:55;;;;;;;5.17;3.90;;;;;;;;;;4981755;28;20210;-80
2023/04/04 07:11:24;;;;;;;8.47;4.43;;;;;;;;;;4979970;28;20189;-80
2023/04/04 07:13:50;;;;;;;8.53;4.17;;;;;;;;;;4996292;28;20204;-80
2023/04/04 07:16:16;;;;;;;5.80;4.17;;;;;;;;;;4989277;28;20192;-80
2023/04/04 07:18:43;;;;;;;7.87;3.97;;;;;;;;;;4980524;28;20201;-80
2023/04/04 07:21:09;;;;;;;8.10;4.40;;;;;;;;;;4996701;28;20177;-80
2023/04/04 07:23:35;;;;;;;6.93;4.20;;;;;;;;;;5013072;28;20185;-81
2023/04/04 07:26:01;;;;;;;6.10;3.83;;;;;;;;;;5009843;28;20263;-80
2023/04/04 07:28:27;;;;;;;5.87;3.87;;;;;;;;;;5016664;28;20225;-80
2023/04/04 07:30:53;;;;;;;7.00;3.90;;;;;;;;;;4996425;28;20230;-80
2023/04/04 07:33:20;;;;;;;8.47;3.93;;;;;;;;;;5009103;28;20181;-80
2023/04/04 07:35:46;;;;;;;8.05;4.40;;;;;;;;;;4988714;28;20424;-80
2023/04/04 07:38:12;;;;;;;6.82;4.30;;;;;;;;;;4988102;28;20429;-81
2023/04/04 07:40:38;;;;;;;5.10;3.70;;;;;;;;;;4986916;28;20212;-80
2023/04/04 07:43:04;;;;;;;6.68;4.20;;;;;;;;;;4978576;28;20431;-86
2023/04/04 07:45:30;;;;;;;6.40;4.32;;;;;;;;;;5011359;28;20470;-87
2023/04/04 07:47:56;;;;;;;5.70;3.88;;;;;;;;;;4989782;28;20100;-88
2023/04/04 07:50:22;;;;;;;7.70;3.97;;;;;;;;;;4996809;28;20181;-88
2023/04/04 07:52:53;;;;;;;5.90;3.67;;;;;;;;;;5015480;28;20182;-87
2023/04/04 07:55:19;;;;;;;5.60;3.97;;;;;;;;;;5003292;28;20230;-88
2023/04/04 07:57:46;;;;;;;7.00;3.90;;;;;;;;;;5019909;28;20181;-88
2023/04/04 08:00:12;;;;;;;8.47;4.10;;;;;;;;;;5004308;28;20181;-82
2023/04/04 08:02:38;;;;;;;7.05;4.38;;;;;;;;;;5016065;28;20447;-82
2023/04/04 08:05:05;;;;;;;5.40;4.05;;;;;;;;;;5015716;28;20415;-82
2023/04/04 08:07:31;;;;;;;5.83;3.80;;;;;;;;;;5016901;28;20170;-82
2023/04/04 08:09:57;;;;;;;6.77;3.87;;;;;;;;;;5016376;28;20216;-82
2023/04/04 08:12:23;;;;;;;6.72;4.30;;;;;;;;;;5017049;28;20426;-82
2023/04/04 08:14:49;;;;;;;6.50;4.25;;;;;;;;;;4981784;28;20423;-82
2023/04/04 08:17:17;;;;;;;6.35;4.22;;;;;;;;;;5008101;28;20435;-88
2023/04/04 08:19:44;;;;;;;6.17;4.20;;;;;;;;;;4999340;28;20441;-88
2023/04/04 08:22:10;;;;;;;7.05;4.20;;;;;;;;;;4979688;28;20435;-88
2023/04/04 08:24:36;;;;;;;6.30;4.10;;;;;;;;;;4982834;28;20423;-82
2023/04/04 08:27:02;;;;;;;5.75;3.90;;;;;;;;;;4982513;28;20423;-83
2023/04/04 08:29:30;;;;;;;6.13;3.80;;;;;;;;;;4993368;28;20464;-82
2023/04/04 08:31:56;;;;;;;6.25;4.07;;;;;;;;;;4998126;28;20426;-80
2023/04/04 08:34:22;;;;;;;7.38;4.25;;;;;;;;;;5003485;28;20431;-81
2023/04/04 08:36:48;;;;;;;4.95;3.30;;;;;;;;;;4998972;28;20407;-81
2023/04/04 08:39:14;;;;;;;4.43;3.50;;;;;;;;;;4982603;28;20419;-80
2023/04/04 08:41:42;;;;;;;6.68;3.65;;;;;;;;;;4982793;28;20411;-80
2023/04/04 08:44:12;;;;;;;5.80;3.30;;;;;;;;;;4999244;28;20449;-80
2023/04/04 08:46:38;;;;;;;5.43;3.47;;;;;;;;;;5015453;28;20236;-80
2023/04/04 08:49:05;;;;;;;3.90;2.93;;;;;;;;;;5002862;28;20213;-88
2023/04/04 08:51:32;;;;;;;3.57;2.70;;;;;;;;;;5001402;28;20193;-87
2023/04/04 08:53:59;;;;;;;4.90;3.22;;;;;;;;;;4996092;28;20482;-89
2023/04/04 08:56:25;;;;;;;5.23;3.00;;;;;;;;;;4983021;28;20173;-80
2023/04/04 08:58:51;;;;;;;4.72;3.20;;;;;;;;;;4998003;28;20426;-81
2023/04/04 09:01:17;;;;;;;5.87;3.00;;;;;;;;;;4996792;28;20522;-81
2023/04/04 09:03:44;;;;;;;3.67;2.73;;;;;;;;;;5005061;28;20439;-82
2023/04/04 09:06:10;;;;;;;3.60;2.77;;;;;;;;;;5001772;28;20229;-81
2023/04/04 09:08:36;;;;;;;4.57;2.60;;;;;;;;;;4979539;28;20297;-82
2023/04/04 09:11:03;;;;;;;3.60;2.57;;;;;;;;;;4992105;28;20258;-81
2023/04/04 09:13:29;;;;;;;6.03;2.97;;;;;;;;;;4983614;28;20296;-81
2023/04/04 09:15:57;;;;;;;4.23;2.83;;;;;;;;;;5010934;28;20184;-81
2023/04/04 09:18:23;;;;;;;3.60;2.67;;;;;;;;;;4999855;28;20181;-82
2023/04/04 09:20:49;;;;;;;5.57;2.87;;;;;;;;;;5005702;28;20215;-82
2023/04/04 09:23:19;;;;;;;5.37;3.10;;;;;;;;;;5005280;28;20189;-91
2023/04/04 09:25:52;;;;;;;3.67;2.50;;;;;;;;;;4998228;28;20199;-81
2023/04/04 09:28:19;;;;;;;6.70;3.00;;;;;;;;;;4997626;28;20216;-81
2023/04/04 09:30:47;;;;;;;2.93;2.53;;;;;;;;;;4983849;28;20190;-80
2023/04/04 09:33:14;;;;;;;4.07;2.50;;;;;;;;;;5008507;28;20256;-82
2023/04/04 09:35:44;;;;;;;6.00;2.60;;;;;;;;;;5035352;28;20255;-82
2023/04/04 09:38:10;;;;;;;5.23;2.60;;;;;;;;;;5009022;28;20247;-82
2023/04/04 09:40:37;;;;;;;4.00;2.73;;;;;;;;;;4982066;28;20197;-82
2023/04/04 09:43:04;;;;;;;4.20;2.67;;;;;;;;;;5011644;28;20220;-82
2023/04/04 09:45:30;;;;;;;4.90;2.73;;;;;;;;;;5013562;28;20225;-81
2023/04/04 09:47:56;;;;;;;6.37;2.90;;;;;;;;;;5013959;28;20185;-82
2023/04/04 09:50:23;;;;;;;6.00;2.83;;;;;;;;;;4981257;28;20186;-82
2023/04/04 09:52:50;;;;;;;4.93;2.80;;;;;;;;;;4999643;28;20193;-81
2023/04/04 09:55:17;;;;;;;4.53;3.17;;;;;;;;;;4996553;28;20189;-82
2023/04/04 09:57:43;;;;;;;6.37;3.20;;;;;;;;;;5021638;28;20186;-81
2023/04/04 10:00:11;;;;;;;5.20;2.93;;;;;;;;;;4981309;28;20196;-88
2023/04/04 10:02:39;;;;;;;5.23;3.13;;;;;;;;;;4992470;28;20197;-89
2023/04/04 10:05:09;;;;;;;5.70;2.90;;;;;;;;;;5015199;28;20409;-89
2023/04/04 10:07:38;;;;;;;5.60;3.27;;;;;;;;;;5001537;28;20280;-89
2023/04/04 10:10:05;;;;;;;8.33;3.30;;;;;;;;;;5017169;28;20213;-89
2023/04/04 10:12:31;;;;;;;6.40;3.30;;;;;;;;;;5012025;28;20209;-82
2023/04/04 10:15:01;;;;;;;5.67;3.20;;;;;;;;;;5010287;28;20192;-83
2023/04/04 10:17:37;;;;;;;5.00;3.30;;;;;;;;;;5009850;28;20188;-83
2023/04/04 10:20:08;;;;;;;5.10;3.30;;;;;;;;;;4977759;28;20224;-83
2023/04/04 10:22:35;;;;;;;5.37;2.87;;;;;;;;;;5000125;28;20188;-83
2023/04/04 10:25:01;;;;;;;6.30;3.20;;;;;;;;;;4987287;28;20215;-83
2023/04/04 10:27:27;;;;;;;6.27;3.23;;;;;;;;;;4999574;28;20193;-83
2023/04/04 10:29:53;;;;;;;8.37;3.70;;;;;;;;;;4977034;28;20217;-83
2023/04/04 10:32:25;;;;;;;7.13;3.40;;;;;;;;;;4992753;28;20189;-83
2023/04/04 10:35:02;;;;;;;6.47;3.30;;;;;;;;;;5011899;28;20189;-83
2023/04/04 10:37:31;;;;;;;5.30;3.30;;;;;;;;;;5013400;28;20177;-83
2023/04/04 10:39:57;;;;;;;4.77;3.20;;;;;;;;;;5010831;28;20181;-83
2023/04/04 10:42:25;;;;;;;5.90;3.30;;;;;;;;;;5012432;28;20238;-83
2023/04/04 10:44:52;;;;;;;4.20;2.90;;;;;;;;;;5018651;28;20186;-83
2023/04/04 10:47:20;;;;;;;5.43;3.37;;;;;;;;;;4977578;28;20229;-90
2023/04/04 10:49:47;;;;;;;5.20;3.00;;;;;;;;;;4978295;28;20210;-90
2023/04/04 10:52:15;;;;;;;5.23;3.27;;;;;;;;;;5001479;28;20173;-90
2023/04/04 10:54:42;;;;;;;4.87;3.20;;;;;;;;;;4996852;28;20173;-90
2023/04/04 10:57:09;;;;;;;5.67;3.33;;;;;;;;;;4980347;28;20181;-92
2023/04/04 10:59:55;;;;;;;5.17;3.40;;;;;;;;;;5012235;28;20188;-90
2023/04/04 11:02:42;;;;;;;5.13;3.30;;;;;;;;;;5008096;28;20177;-81
2023/04/04 11:05:12;;;;;;;5.57;3.37;;;;;;;;;;4996819;28;20271;-81
2023/04/04 11:07:39;;;;;;;6.43;3.40;;;;;;;;;;4987084;28;20181;-83
2023/04/04 11:10:24;;;;;;;6.80;3.13;;;;;;;;;;4996558;28;20251;-83
2023/04/04 11:12:55;;;;;;;4.80;3.40;;;;;;;;;;4996722;28;20176;-83
2023/04/04 11:15:22;;;;;;;4.97;3.07;;;;;;;;;;5014060;28;20174;-83
2023/04/04 11:17:48;;;;;;;6.27;3.70;;;;;;;;;;5014193;28;20204;-83
2023/04/04 11:20:18;;;;;;;6.10;3.50;;;;;;;;;;5012568;28;20186;-82
2023/04/04 11:22:45;;;;;;;5.73;3.20;;;;;;;;;;5012594;28;20181;-82
2023/04/04 11:25:29;;;;;;;5.67;3.13;;;;;;;;;;4996880;28;20185;-82
2023/04/04 11:27:59;;;;;;;4.23;3.40;;;;;;;;;;5014898;28;20173;-82
2023/04/04 11:30:27;;;;;;;6.10;3.53;;;;;;;;;;4991161;28;20283;-83
2023/04/04 11:32:56;;;;;;;5.60;3.40;;;;;;;;;;5017521;28;20169;-82
2023/04/04 11:35:22;;;;;;;9.87;3.97;;;;;;;;;;5000076;28;20177;-90
2023/04/04 11:37:52;;;;;;;4.10;3.13;;;;;;;;;;5015631;28;20208;-91
2023/04/04 11:40:18;;;;;;;6.23;3.47;;;;;;;;;;5013898;28;20188;-91
2023/04/04 11:42:45;;;;;;;5.70;3.83;;;;;;;;;;5017995;28;20265;-90
2023/04/04 11:45:17;;;;;;;7.67;3.80;;;;;;;;;;4999879;28;20224;-90
2023/04/04 11:47:46;;;;;;;6.33;3.50;;;;;;;;;;5002585;28;20227;-90
2023/04/04 11:50:13;;;;;;;4.90;3.10;;;;;;;;;;5016754;28;20258;-90
2023/04/04 11:52:41;;;;;;;5.77;3.50;;;;;;;;;;5000550;28;20177;-82
2023/04/04 11:55:15;;;;;;;5.83;3.40;;;;;;;;;;4993661;28;20189;-82
2023/04/04 11:57:42;;;;;;;6.10;3.47;;;;;;;;;;4994767;28;20190;-82
2023/04/04 12:00:09;;;;;;;5.70;3.17;;;;;;;;;;5001710;28;20184;-82
2023/04/04 12:02:36;;;;;;;5.33;3.40;;;;;;;;;;4997291;28;20196;-82
2023/04/04 12:05:05;;;;;;;5.50;3.73;;;;;;;;;;4990726;28;20196;-82
2023/04/04 12:07:31;;;;;;;5.00;3.30;;;;;;;;;;4985923;28;20200;-81
2023/04/04 12:09:58;;;;;;;6.43;3.97;;;;;;;;;;4999632;28;20213;-89
2023/04/04 12:12:25;;;;;;;5.80;3.10;;;;;;;;;;5000266;28;20201;-90
2023/04/04 12:14:53;;;;;;;5.13;3.50;;;;;;;;;;5019054;28;20178;-90
2023/04/04 12:17:19;;;;;;;6.77;3.27;;;;;;;;;;5011062;28;20181;-91
2023/04/04 12:19:45;;;;;;;4.07;3.17;;;;;;;;;;4999900;28;20200;-90
2023/04/04 12:22:11;;;;;;;6.43;3.47;;;;;;;;;;4985868;28;20185;-90
2023/04/04 12:24:37;;;;;;;7.80;3.77;;;;;;;;;;4993425;28;20191;-90
2023/04/04 12:27:04;;;;;;;4.97;3.47;;;;;;;;;;5019546;28;20208;-82
2023/04/04 12:29:37;;;;;;;4.00;3.23;;;;;;;;;;4996179;28;20210;-81
2023/04/04 12:32:04;;;;;;;4.37;3.00;;;;;;;;;;4999009;28;20264;-81
2023/04/04 12:34:32;;;;;;;4.30;3.00;;;;;;;;;;4999614;28;20236;-81
2023/04/04 12:36:58;;;;;;;6.17;3.17;;;;;;;;;;4999689;28;20181;-81
2023/04/04 12:39:28;;;;;;;4.93;3.10;;;;;;;;;;4999344;28;20339;-81
2023/04/04 12:41:55;;;;;;;5.70;3.97;;;;;;;;;;5021103;28;20189;-89
2023/04/04 12:44:35;;;;;;;6.43;3.73;;;;;;;;;;5013353;28;20188;-90
2023/04/04 12:47:03;;;;;;;6.33;3.30;;;;;;;;;;5000636;28;20232;-90
2023/04/04 12:49:38;;;;;;;6.17;3.43;;;;;;;;;;5015541;28;20229;-90
2023/04/04 12:52:06;;;;;;;4.50;3.17;;;;;;;;;;4996435;28;20189;-84
2023/04/04 12:54:37;;;;;;;5.75;3.70;;;;;;;;;;4982234;28;20431;-84
2023/04/04 12:57:04;;;;;;;5.97;3.60;;;;;;;;;;5010905;28;20447;-83
2023/04/04 12:59:34;;;;;;;5.60;3.92;;;;;;;;;;5001340;28;20425;-82
2023/04/04 13:02:01;;;;;;;5.88;3.80;;;;;;;;;;5029969;28;20427;-82
2023/04/04 13:04:27;;;;;;;6.57;3.78;;;;;;;;;;5023741;28;20457;-82
2023/04/04 13:06:53;;;;;;;5.60;3.63;;;;;;;;;;5000974;28;20513;-82
2023/04/04 13:09:21;;;;;;;5.70;3.50;;;;;;;;;;5019438;28;20443;-83
2023/04/04 13:12:04;;;;;;;5.03;3.70;;;;;;;;;;5010480;28;20422;-82
2023/04/04 13:14:49;;;;;;;4.35;3.33;;;;;;;;;;5017516;28;20413;-82
2023/04/04 13:17:15;;;;;;;4.23;3.40;;;;;;;;;;5000648;28;20184;-81
2023/04/04 13:19:41;;;;;;;3.93;3.07;;;;;;;;;;4982423;28;20280;-81
2023/04/04 13:22:10;;;;;;;5.37;3.20;;;;;;;;;;5014183;28;20271;-81
2023/04/04 13:24:36;;;;;;;4.83;3.20;;;;;;;;;;4982171;28;20186;-82
2023/04/04 13:27:02;;;;;;;4.17;2.77;;;;;;;;;;4984226;28;20176;-81
2023/04/04 13:29:28;;;;;;;6.90;3.30;;;;;;;;;;4999382;28;20212;-81
2023/04/04 13:31:54;;;;;;;5.07;3.40;;;;;;;;;;5018235;28;20181;-90
2023/04/04 13:34:25;;;;;;;6.57;3.50;;;;;;;;;;5018187;28;20235;-89
2023/04/04 13:36:51;;;;;;;5.23;3.30;;;;;;;;;;5000514;28;20181;-90
2023/04/04 13:39:17;;;;;;;5.40;3.30;;;;;;;;;;4998176;28;20214;-88
2023/04/04 13:41:43;;;;;;;6.03;3.67;;;;;;;;;;4987408;28;20425;-89
2023/04/04 13:44:09;;;;;;;4.57;3.50;;;;;;;;;;5001264;28;20252;-88
2023/04/04 13:46:35;;;;;;;5.35;3.70;;;;;;;;;;5005577;28;20449;-88
2023/04/04 13:49:02;;;;;;;5.38;3.88;;;;;;;;;;5016388;28;20429;-89
2023/04/04 13:51:28;;;;;;;5.13;4.07;;;;;;;;;;5000359;28;20280;-89
2023/04/04 13:53:54;;;;;;;5.93;3.60;;;;;;;;;;5001167;28;20211;-89
2023/04/04 13:56:20;;;;;;;4.80;3.23;;;;;;;;;;5006363;28;20224;-88
2023/04/04 13:58:46;;;;;;;4.40;3.03;;;;;;;;;;5011595;28;20181;-89
2023/04/04 14:01:12;;;;;;;4.77;3.50;;;;;;;;;;4998855;28;20189;-89
2023/04/04 14:03:38;;;;;;;4.73;3.50;;;;;;;;;;5001297;28;20187;-89
2023/04/04 14:06:05;;;;;;;7.77;3.80;;;;;;;;;;4986852;28;20277;-82
2023/04/04 14:08:31;;;;;;;5.13;3.20;;;;;;;;;;4981258;28;20204;-82
2023/04/04 14:10:57;;;;;;;4.93;3.70;;;;;;;;;;4989657;28;20184;-82
2023/04/04 14:13:23;;;;;;;5.90;3.37;;;;;;;;;;5000965;28;20180;-81
2023/04/04 14:15:49;;;;;;;4.60;3.40;;;;;;;;;;4992546;28;20427;-82
2023/04/04 14:18:15;;;;;;;6.77;3.97;;;;;;;;;;5012726;28;20429;-82
2023/04/04 14:20:41;;;;;;;7.22;4.22;;;;;;;;;;5000075;28;20437;-82
2023/04/04 14:23:08;;;;;;;6.22;4.07;;;;;;;;;;4982606;28;20454;-88
2023/04/04 14:25:34;;;;;;;6.88;3.75;;;;;;;;;;4981035;28;20427;-88
2023/04/04 14:28:00;;;;;;;6.10;3.92;;;;;;;;;;4997133;28;20443;-89
2023/04/04 14:30:27;;;;;;;5.57;4.17;;;;;;;;;;4997357;28;20419;-90
2023/04/04 14:32:53;;;;;;;6.30;4.15;;;;;;;;;;4980343;28;20434;-88
2023/04/04 14:35:19;;;;;;;4.60;3.53;;;;;;;;;;5012576;28;20454;-88
2023/04/04 14:37:45;;;;;;;6.28;3.70;;;;;;;;;;4980185;28;20414;-87
2023/04/04 14:40:12;;;;;;;5.10;3.80;;;;;;;;;;4980576;28;20439;-82
2023/04/04 14:42:38;;;;;;;4.60;3.37;;;;;;;;;;4980944;28;20185;-87
2023/04/04 14:45:06;;;;;;;5.33;3.40;;;;;;;;;;4997562;28;20181;-88